Cottonwood Pass, CO

4:17 AM MDT on April 27, 2015 (GMT -0600)
Pitkin | | Change Station
CLOSE
Current Station
Personal Weather Station
Location: Pitkin, CO
Elevation: 9377 ft
Nearby Weather Stations

Elev 9377 ft 38.61 °N, 106.50 °W | Updated 3 minutes ago

Overcast
Overcast
28.9 °F
Feels Like 29 °F
N
1.0
Wind Variable Wind from SSW
Gusts 2.0 mph

Today
High -- | Low -- °F
--% Chance of Precip.
Yesterday
High -- | Low -- °F
Precip. -- in
6:12 AM 7:53 PM
Waxing Gibbous, 63% visible
Pressure 30.09 in
Visibility 10.0 miles
Clouds Scattered Clouds 2400 ft
Mostly Cloudy 4000 ft
Overcast 4700 ft
Windchill 29 °F
Dew Point 27 °F
Humidity 93%
Rainfall 0.00 in
Snow Depth Not available.
UV 0 out of 12
Pollen 4.70 out of 12
Air Quality Not available.
Flu Activity Sporadic
METAR KAEJ 270955Z AUTO 00000KT 10SM -RA SCT024 BKN040 OVC047 01/01 A3009 RMK AO2 T00110005

More Conditions Fewer Conditions

Pressure 30.09 in
Visibility 10.0 miles
Clouds Scattered Clouds 2400 ft
Mostly Cloudy 4000 ft
Overcast 4700 ft
Windchill 29 °F
Dew Point 27 °F
Humidity 93%
Rainfall 0.00 in
Snow Depth Not available.
UV 0 out of 12
Pollen 4.70 out of 12
Air Quality Not available.
Flu Activity Sporadic
METAR KAEJ 270955Z AUTO 00000KT 10SM -RA SCT024 BKN040 OVC047 01/01 A3009 RMK AO2 T00110005

More Conditions Fewer Conditions

10-Day Weather Forecast

Almanac

Astronomy

Apr. 27, 2015 Rise Set
Actual Time
Civil Twilight
Nautical Twilight
Astronomical Twilight
Moon
Length of Visible Light
Length of Day
Tomorrow will be .
, % of the Moon is Illuminated

Today's Extremes

State Highs State Lows

Community

WunderPhotos

Upload Photos

1,817,278 photos uploaded!

WunderBlogs® & News

Nearby

Air Quality

  Air Quality AQ Index Pollutant
Not available.

Snow Depth

Station Depth Elevation

Earthquake Activity

City Distance Mag. Time & Date
Minimum magnitude displayed is 2.5.

Coastal Water Temperatures

Place Temperature

Stations

Nearby Weather Stations

Station Location Temp. Windchill Dew Point Humidity Wind Precip. Elev Updated Type